Aeroporto :







RITROVATECI SU...

 
LOGIN :

Iscrizione | Disclaimer

   EN    FR    IT 

 









Sommario :    VFR   VFR Marginale   IFR   IFR Intensivo   IFR Molto Intensivo
Visibilità : 
Base nubi : 
>= 8 km
>= 3000ft
5 / 8 km
1000 / 3000 ft
1500m / 5 km
500 / 1000 ft
800 / 1500m
200 / 500 ft
< 800m
< 200 ft
Simboli :   Temporali  Nebbia  Neve Forte  Precipitazioni Forti  Vento > 20 kt






- Altitudine del aeroporto : 30 ft
- Codice IATA : AZS


MDCY - El Catey Int.

ULTIMO METAR :
  • 240000Z 00000KT 9999 FEW018 27/25 Q1013

METARs OBSOLETI :
  • 232300Z 00000KT 9999 SCT018 27/25 Q1012
  • 232200Z 13006KT 9999 SCT020 31/26 Q1012

TAF TAF MDCY
Valido dal 24 a 00 ore il 25 a 00 ore UTC


232200Z 2400/2500 13008KT 9999 SCT018
BECMG 2400/2404 00000KT
FIR MDCS / America del Nord



MetMap, La meteo Aeronautica in un colpo d'occhio ! - Copyright ORBIFLY Dicembre 2007 - Disclaimer

ORBIFLY MET'MAP TEAM :

Programmazione e sviluppo : Alexandra Zaïnal
Concezione : Baudouin d'Aumeries
Aiuto per la programmazione : Marc-Olivier Méhu
Supporto tecnico e logistico : Manuel Goepfert
Aiuto per la traduzione : Arnaldo La Scala

Contatto : metmap@orbifly.com




FONTI E CREDITI :

   NOAA